Time;durP1;ratioP1;P1;durP2;ratioP2;P2;SDS_P1;SDS_P2;PMS_P1;PMS_P2;Temp;Humidity;BMP_temperature;BMP_pressure;BME280_temperature;BME280_humidity;BME280_pressure;Samples;Min_cycle;Max_cycle;Signal;HPM_P1;HPM_P2
2023/07/01 00:01:39;;;;;;;10.63;3.05;;;;;;;;;;5032177;28;19925;-83
2023/07/01 00:04:05;;;;;;;;;;;;;;;;;;5033004;28;20079;-83
2023/07/01 00:06:31;;;;;;;8.50;2.72;;;;;;;;;;5045559;28;19925;-83
2023/07/01 00:08:57;;;;;;;;;;;;;;;;;;5039624;28;20067;-83
2023/07/01 00:11:23;;;;;;;14.80;2.75;;;;;;;;;;5072774;28;19924;-83
2023/07/01 00:13:49;;;;;;;8.73;2.25;;;;;;;;;;5055381;28;20523;-83
2023/07/01 00:16:15;;;;;;;;;;;;;;;;;;5037165;28;20056;-83
2023/07/01 00:18:42;;;;;;;12.13;2.65;;;;;;;;;;5051642;28;19920;-84
2023/07/01 00:21:08;;;;;;;10.20;2.92;;;;;;;;;;5053740;28;20048;-84
2023/07/01 00:23:34;;;;;;;9.30;2.38;;;;;;;;;;5037447;28;20513;-83
2023/07/01 00:26:00;;;;;;;8.02;2.30;;;;;;;;;;5053074;28;20375;-84
2023/07/01 00:28:26;;;;;;;9.13;2.60;;;;;;;;;;5053766;28;20469;-83
2023/07/01 00:30:52;;;;;;;;;;;;;;;;;;5055845;28;20079;-83
2023/07/01 00:33:18;;;;;;;10.80;2.60;;;;;;;;;;5055295;28;19995;-83
2023/07/01 00:35:44;;;;;;;;;;;;;;;;;;5068845;28;20397;-84
2023/07/01 00:38:10;;;;;;;6.75;2.40;;;;;;;;;;5035162;28;19921;-81
2023/07/01 00:40:36;;;;;;;;;;;;;;;;;;5035557;28;20048;-82
2023/07/01 00:43:03;;;;;;;9.18;2.38;;;;;;;;;;5052219;28;19920;-82
2023/07/01 00:45:29;;;;;;;8.75;2.42;;;;;;;;;;5052578;28;20057;-82
2023/07/01 00:47:55;;;;;;;;;;;;;;;;;;5051848;28;20049;-83
2023/07/01 00:50:21;;;;;;;12.68;2.42;;;;;;;;;;5069186;28;19924;-83
2023/07/01 00:52:47;;;;;;;9.07;2.28;;;;;;;;;;5047214;28;20048;-82
2023/07/01 00:55:13;;;;;;;;;;;;;;;;;;5058394;28;20045;-82
2023/07/01 00:57:39;;;;;;;6.85;2.53;;;;;;;;;;5051842;28;19924;-82
2023/07/01 01:00:08;;;;;;;;;;;;;;;;;;5052863;28;20055;-82
2023/07/01 01:02:40;;;;;;;7.85;2.53;;;;;;;;;;5051532;28;19921;-82
2023/07/01 01:05:12;;;;;;;10.35;2.60;;;;;;;;;;5052193;28;20052;-82
2023/07/01 01:07:42;;;;;;;9.10;2.70;;;;;;;;;;5051790;28;20133;-82
2023/07/01 01:10:10;;;;;;;9.52;2.90;;;;;;;;;;5051821;28;20080;-82
2023/07/01 01:12:37;;;;;;;10.75;2.50;;;;;;;;;;5053797;28;20536;-83
2023/07/01 01:15:04;;;;;;;8.30;2.33;;;;;;;;;;5072135;28;20448;-82
2023/07/01 01:17:32;;;;;;;10.90;2.55;;;;;;;;;;5070767;28;20123;-83
2023/07/01 01:20:13;;;;;;;8.55;2.80;;;;;;;;;;5071030;28;20054;-82
2023/07/01 01:22:49;;;;;;;8.73;2.40;;;;;;;;;;5067980;28;20072;-82
2023/07/01 01:25:28;;;;;;;6.85;2.40;;;;;;;;;;5051496;28;20482;-82
2023/07/01 01:27:55;;;;;;;14.60;2.67;;;;;;;;;;5051485;28;20449;-82
2023/07/01 01:30:24;;;;;;;7.25;2.85;;;;;;;;;;5051922;28;20470;-83
2023/07/01 01:32:51;;;;;;;11.52;2.60;;;;;;;;;;5050589;28;20454;-82
2023/07/01 01:35:17;;;;;;;12.85;3.00;;;;;;;;;;5051768;28;20552;-83
2023/07/01 01:37:52;;;;;;;8.52;2.70;;;;;;;;;;5034023;28;20183;-82
2023/07/01 01:40:23;;;;;;;11.10;2.92;;;;;;;;;;5054612;28;20055;-83
2023/07/01 01:42:49;;;;;;;12.88;2.83;;;;;;;;;;5054243;28;20096;-83
2023/07/01 01:45:16;;;;;;;8.10;2.72;;;;;;;;;;5053446;28;20059;-82
2023/07/01 01:47:42;;;;;;;6.65;2.40;;;;;;;;;;5050613;28;20448;-83
2023/07/01 01:50:10;;;;;;;12.90;3.13;;;;;;;;;;5035003;28;20051;-83
2023/07/01 01:52:37;;;;;;;8.48;2.92;;;;;;;;;;5051827;28;20056;-84
2023/07/01 01:55:04;;;;;;;11.60;2.88;;;;;;;;;;5037358;28;20044;-82
2023/07/01 01:57:30;;;;;;;11.98;2.80;;;;;;;;;;5051482;28;20048;-83
2023/07/01 01:59:56;;;;;;;12.95;2.92;;;;;;;;;;5034823;28;20049;-84
2023/07/01 02:02:22;;;;;;;;;;;;;;;;;;5035568;28;20084;-84
2023/07/01 02:04:48;;;;;;;9.60;3.10;;;;;;;;;;5053762;28;19924;-83
2023/07/01 02:07:14;;;;;;;;;;;;;;;;;;5055039;28;20052;-84
2023/07/01 02:09:40;;;;;;;9.23;3.08;;;;;;;;;;5070811;28;20285;-84
2023/07/01 02:12:06;;;;;;;;;;;;;;;;;;5054126;28;20060;-84
2023/07/01 02:14:32;;;;;;;9.30;3.00;;;;;;;;;;5054102;28;19974;-84
2023/07/01 02:16:58;;;;;;;;;;;;;;;;;;5053203;28;20055;-85
2023/07/01 02:19:24;;;;;;;7.65;3.05;;;;;;;;;;5053649;28;19929;-84
2023/07/01 02:21:50;;;;;;;;;;;;;;;;;;5044428;28;20110;-84
2023/07/01 02:24:16;;;;;;;10.80;3.00;;;;;;;;;;5050369;28;19925;-83
2023/07/01 02:26:45;;;;;;;;;;;;;;;;;;5034484;28;20052;-78
2023/07/01 02:29:11;;;;;;;9.32;3.28;;;;;;;;;;5050675;28;20269;-88
2023/07/01 02:31:37;;;;;;;5.72;3.33;;;;;;;;;;5054417;28;20041;-87
2023/07/01 02:34:03;;;;;;;;;;;;;;;;;;5069978;28;20045;-87
2023/07/01 02:36:29;;;;;;;8.95;3.60;;;;;;;;;;5054137;28;19926;-87
2023/07/01 02:38:55;;;;;;;13.65;3.50;;;;;;;;;;5052333;28;20056;-88
2023/07/01 02:41:21;;;;;;;11.23;3.72;;;;;;;;;;5054095;28;20048;-87
2023/07/01 02:43:47;;;;;;;;;;;;;;;;;;5060702;28;20135;-87
2023/07/01 02:46:13;;;;;;;5.85;3.13;;;;;;;;;;5061265;28;20019;-88
2023/07/01 02:48:39;;;;;;;;;;;;;;;;;;5070240;28;20384;-88
2023/07/01 02:51:06;;;;;;;8.25;3.47;;;;;;;;;;5070312;28;19925;-87
2023/07/01 02:53:32;;;;;;;9.52;3.22;;;;;;;;;;5053663;28;20060;-87
2023/07/01 02:55:58;;;;;;;8.73;3.85;;;;;;;;;;5037013;28;20139;-87
2023/07/01 02:58:25;;;;;;;9.60;3.50;;;;;;;;;;5033418;28;20049;-86
2023/07/01 03:00:51;;;;;;;6.93;3.28;;;;;;;;;;5036048;28;20128;-88
2023/07/01 03:03:17;;;;;;;;;;;;;;;;;;5051135;28;20048;-87
2023/07/01 03:05:44;;;;;;;10.00;3.53;;;;;;;;;;5033622;28;19920;-85
2023/07/01 03:08:10;;;;;;;9.25;3.13;;;;;;;;;;5061840;28;20052;-87
2023/07/01 03:10:36;;;;;;;;;;;;;;;;;;5069904;28;20053;-87
2023/07/01 03:13:02;;;;;;;12.35;3.13;;;;;;;;;;5051197;28;19949;-87
2023/07/01 03:15:28;;;;;;;8.10;3.10;;;;;;;;;;5052677;28;20052;-88
2023/07/01 03:17:54;;;;;;;7.82;2.95;;;;;;;;;;5051126;28;20056;-87
2023/07/01 03:20:23;;;;;;;9.88;2.90;;;;;;;;;;5052408;28;20489;-87
2023/07/01 03:22:57;;;;;;;8.07;3.08;;;;;;;;;;5066927;28;20049;-86
2023/07/01 03:25:24;;;;;;;9.57;3.20;;;;;;;;;;5053682;28;20048;-88
2023/07/01 03:27:50;;;;;;;7.18;2.78;;;;;;;;;;5053071;28;20059;-87
2023/07/01 03:30:17;;;;;;;10.10;2.92;;;;;;;;;;5053542;28;20048;-86
2023/07/01 03:32:44;;;;;;;9.48;2.97;;;;;;;;;;5052887;28;20048;-86
2023/07/01 03:35:11;;;;;;;9.00;3.70;;;;;;;;;;5055838;28;20048;-87
2023/07/01 03:37:38;;;;;;;8.43;3.20;;;;;;;;;;5058987;28;20055;-87
2023/07/01 03:40:04;;;;;;;5.55;2.60;;;;;;;;;;5038173;28;20063;-88
2023/07/01 03:42:31;;;;;;;6.72;2.95;;;;;;;;;;5057140;28;20071;-86
2023/07/01 03:44:57;;;;;;;11.38;3.20;;;;;;;;;;5073190;28;20036;-87
2023/07/01 03:47:23;;;;;;;7.80;2.80;;;;;;;;;;5071842;28;20500;-88
2023/07/01 03:49:49;;;;;;;9.18;3.00;;;;;;;;;;5072646;28;20112;-85
2023/07/01 03:52:15;;;;;;;;;;;;;;;;;;5054250;28;20047;-88
2023/07/01 03:54:41;;;;;;;7.63;3.08;;;;;;;;;;5053507;28;19920;-87
2023/07/01 03:57:07;;;;;;;7.60;3.05;;;;;;;;;;5062486;28;20497;-87
2023/07/01 03:59:33;;;;;;;10.85;3.15;;;;;;;;;;5057112;28;20507;-88
2023/07/01 04:02:00;;;;;;;;;;;;;;;;;;5073995;28;20040;-87
2023/07/01 04:04:26;;;;;;;13.27;3.60;;;;;;;;;;5072907;28;19924;-87
2023/07/01 04:06:54;;;;;;;;;;;;;;;;;;5070154;28;20055;-85
2023/07/01 04:09:20;;;;;;;12.25;4.28;;;;;;;;;;5073179;28;19920;-87
2023/07/01 04:11:46;;;;;;;;;;;;;;;;;;5074045;28;20473;-89
2023/07/01 04:14:15;;;;;;;12.95;3.63;;;;;;;;;;5055780;28;19924;-91
2023/07/01 04:16:44;;;;;;;10.95;4.10;;;;;;;;;;5041844;28;20040;-90
2023/07/01 04:19:10;;;;;;;10.52;3.92;;;;;;;;;;5073351;28;20362;-89
2023/07/01 04:21:37;;;;;;;13.60;4.78;;;;;;;;;;5049208;28;20048;-85
2023/07/01 04:24:04;;;;;;;;;;;;;;;;;;5036530;28;20044;-86
2023/07/01 04:26:36;;;;;;;14.43;4.95;;;;;;;;;;5053891;28;19966;-86
2023/07/01 04:29:03;;;;;;;11.77;4.82;;;;;;;;;;5037477;28;20060;-87
2023/07/01 04:31:29;;;;;;;11.27;4.75;;;;;;;;;;5054668;28;20091;-86
2023/07/01 04:33:55;;;;;;;12.15;4.95;;;;;;;;;;5053692;28;20049;-86
2023/07/01 04:36:22;;;;;;;8.23;4.90;;;;;;;;;;5052730;28;20045;-87
2023/07/01 04:38:48;;;;;;;12.90;5.35;;;;;;;;;;5053844;28;20052;-87
2023/07/01 04:41:14;;;;;;;12.95;4.80;;;;;;;;;;5053551;28;20049;-86
2023/07/01 04:43:40;;;;;;;12.45;4.90;;;;;;;;;;5037522;28;20135;-87
2023/07/01 04:46:06;;;;;;;;;;;;;;;;;;5038144;28;20135;-88
2023/07/01 04:48:32;;;;;;;9.63;4.93;;;;;;;;;;5053754;28;20041;-88
2023/07/01 04:50:58;;;;;;;;;;;;;;;;;;5038105;28;20052;-88
2023/07/01 04:53:24;;;;;;;11.00;5.35;;;;;;;;;;5054199;28;19924;-87
2023/07/01 04:55:50;;;;;;;10.80;5.03;;;;;;;;;;5054693;28;20087;-89
2023/07/01 04:58:17;;;;;;;;;;;;;;;;;;5050590;28;20375;-90
2023/07/01 05:00:43;;;;;;;10.65;5.20;;;;;;;;;;5078015;28;19971;-90
2023/07/01 05:03:09;;;;;;;;;;;;;;;;;;5075295;28;20068;-90
2023/07/01 05:05:35;;;;;;;10.88;4.78;;;;;;;;;;5057306;28;20502;-91
2023/07/01 05:08:01;;;;;;;;;;;;;;;;;;5073461;28;20137;-90
2023/07/01 05:10:27;;;;;;;8.10;4.45;;;;;;;;;;5073795;28;19964;-90
2023/07/01 05:12:53;;;;;;;;;;;;;;;;;;5056956;28;20093;-90
2023/07/01 05:15:19;;;;;;;10.73;5.30;;;;;;;;;;5056552;28;19916;-91
2023/07/01 05:17:45;;;;;;;9.95;4.88;;;;;;;;;;5073155;28;20045;-89
2023/07/01 05:20:11;;;;;;;;;;;;;;;;;;5074051;28;20055;-91
2023/07/01 05:22:37;;;;;;;12.00;5.43;;;;;;;;;;5057102;28;19924;-90
2023/07/01 05:25:03;;;;;;;;;;;;;;;;;;5057266;28;20477;-91
2023/07/01 05:27:30;;;;;;;10.50;5.03;;;;;;;;;;5053111;28;19921;-91
2023/07/01 05:29:56;;;;;;;13.35;5.25;;;;;;;;;;5037110;28;20056;-91
2023/07/01 05:32:22;;;;;;;11.20;4.72;;;;;;;;;;5044798;28;20056;-91
2023/07/01 05:34:48;;;;;;;;;;;;;;;;;;5053625;28;20045;-92
2023/07/01 05:37:14;;;;;;;7.88;4.85;;;;;;;;;;5053389;28;19927;-90
2023/07/01 05:39:40;;;;;;;;;;;;;;;;;;5053635;28;20055;-92
2023/07/01 05:42:06;;;;;;;12.48;5.60;;;;;;;;;;5053580;28;19921;-92
2023/07/01 05:44:32;;;;;;;;;;;;;;;;;;5053838;28;20044;-90
2023/07/01 05:46:58;;;;;;;12.60;4.63;;;;;;;;;;5066328;28;19931;-92
2023/07/01 05:49:24;;;;;;;;;;;;;;;;;;5072983;28;20048;-92
2023/07/01 05:51:51;;;;;;;9.00;4.72;;;;;;;;;;5073466;28;20349;-93
2023/07/01 05:54:17;;;;;;;9.55;4.50;;;;;;;;;;5072584;28;20037;-92
2023/07/01 05:56:43;;;;;;;;;;;;;;;;;;5056989;28;20041;-91
2023/07/01 05:59:09;;;;;;;9.52;4.07;;;;;;;;;;5055477;28;20011;-91
2023/07/01 06:01:35;;;;;;;10.57;4.45;;;;;;;;;;5055695;28;20573;-89
2023/07/01 06:04:01;;;;;;;;;;;;;;;;;;5072336;28;20103;-91
2023/07/01 06:06:27;;;;;;;11.05;4.10;;;;;;;;;;5055707;28;19921;-91
2023/07/01 06:08:54;;;;;;;9.43;4.25;;;;;;;;;;5072333;28;20095;-90
2023/07/01 06:11:20;;;;;;;8.57;4.43;;;;;;;;;;5064514;28;20051;-91
2023/07/01 06:13:47;;;;;;;10.80;4.68;;;;;;;;;;5072631;28;20552;-91
2023/07/01 06:16:13;;;;;;;7.85;4.38;;;;;;;;;;5058261;28;20131;-91
2023/07/01 06:18:40;;;;;;;9.65;4.85;;;;;;;;;;5060277;28;20050;-91
2023/07/01 06:21:06;;;;;;;8.55;4.30;;;;;;;;;;5092186;28;20040;-87
2023/07/01 06:23:32;;;;;;;;;;;;;;;;;;5048704;28;20048;-90
2023/07/01 06:25:58;;;;;;;8.93;4.63;;;;;;;;;;5055706;28;19934;-90
2023/07/01 06:28:24;;;;;;;;;;;;;;;;;;5055406;28;20044;-91
2023/07/01 06:30:50;;;;;;;11.00;5.18;;;;;;;;;;5055292;28;19927;-89
2023/07/01 06:33:16;;;;;;;;;;;;;;;;;;5057603;28;20045;-88
2023/07/01 06:35:43;;;;;;;11.63;5.60;;;;;;;;;;5072227;28;19974;-88
2023/07/01 06:38:09;;;;;;;12.30;5.47;;;;;;;;;;5055464;28;20044;-88
2023/07/01 06:40:36;;;;;;;9.73;6.15;;;;;;;;;;5072705;28;20037;-88
2023/07/01 06:43:05;;;;;;;13.45;5.65;;;;;;;;;;5039073;28;20105;-84
2023/07/01 06:45:31;;;;;;;15.55;6.95;;;;;;;;;;5054495;28;20048;-83
2023/07/01 06:48:01;;;;;;;15.90;6.60;;;;;;;;;;5054074;28;20171;-86
2023/07/01 06:50:27;;;;;;;13.00;6.65;;;;;;;;;;5071261;28;20051;-85
2023/07/01 06:52:53;;;;;;;14.77;7.00;;;;;;;;;;5034132;28;20049;-83
2023/07/01 06:55:19;;;;;;;13.40;7.00;;;;;;;;;;5050883;28;20048;-86
2023/07/01 06:57:45;;;;;;;;;;;;;;;;;;5051186;28;20041;-85
2023/07/01 07:00:12;;;;;;;14.15;6.80;;;;;;;;;;5033824;28;19921;-87
2023/07/01 07:02:38;;;;;;;12.43;6.85;;;;;;;;;;5049680;28;20128;-90
2023/07/01 07:05:06;;;;;;;16.42;7.55;;;;;;;;;;5034485;28;20053;-90
2023/07/01 07:07:32;;;;;;;20.33;8.10;;;;;;;;;;5051125;28;20056;-90
2023/07/01 07:09:58;;;;;;;17.55;8.07;;;;;;;;;;5051142;28;20052;-90
2023/07/01 07:12:24;;;;;;;;;;;;;;;;;;5034768;28;20136;-90
2023/07/01 07:14:50;;;;;;;12.52;7.20;;;;;;;;;;5053933;28;19971;-90
2023/07/01 07:17:16;;;;;;;16.20;8.35;;;;;;;;;;5055712;28;20528;-90
2023/07/01 07:19:42;;;;;;;;;;;;;;;;;;5022815;28;20267;-89
2023/07/01 07:22:08;;;;;;;17.67;7.97;;;;;;;;;;5057210;28;19927;-90
2023/07/01 07:24:34;;;;;;;18.05;9.27;;;;;;;;;;5041321;28;20086;-92
2023/07/01 07:27:00;;;;;;;;;;;;;;;;;;5076203;28;20083;-92
2023/07/01 07:29:27;;;;;;;16.15;8.52;;;;;;;;;;5083213;28;19920;-91
2023/07/01 07:31:53;;;;;;;15.57;9.02;;;;;;;;;;5066494;28;20087;-91
2023/07/01 07:34:19;;;;;;;;;;;;;;;;;;5059090;28;20040;-90
2023/07/01 07:36:45;;;;;;;15.68;8.30;;;;;;;;;;5076032;28;20412;-89
2023/07/01 07:39:14;;;;;;;;;;;;;;;;;;5059548;28;20045;-91
2023/07/01 07:41:44;;;;;;;16.23;8.30;;;;;;;;;;5058521;28;19974;-88
2023/07/01 07:44:10;;;;;;;14.80;9.30;;;;;;;;;;5075396;28;20051;-90
2023/07/01 07:46:38;;;;;;;18.08;8.75;;;;;;;;;;5068835;28;20295;-90
2023/07/01 07:49:04;;;;;;;14.88;8.73;;;;;;;;;;5055313;28;20044;-88
2023/07/01 07:51:30;;;;;;;;;;;;;;;;;;5058590;28;20137;-88
2023/07/01 07:53:56;;;;;;;13.30;8.23;;;;;;;;;;5059139;28;20329;-89
2023/07/01 07:56:22;;;;;;;;;;;;;;;;;;5075819;28;20473;-87
2023/07/01 07:58:48;;;;;;;13.88;8.65;;;;;;;;;;5058487;28;19978;-87
2023/07/01 08:01:14;;;;;;;13.43;8.32;;;;;;;;;;5070711;28;20466;-83
2023/07/01 08:03:40;;;;;;;12.43;7.05;;;;;;;;;;5040536;28;20067;-86
2023/07/01 08:06:06;;;;;;;;;;;;;;;;;;5058565;28;20036;-85
2023/07/01 08:08:33;;;;;;;12.65;7.88;;;;;;;;;;5090590;28;19942;-85
2023/07/01 08:10:59;;;;;;;14.52;8.10;;;;;;;;;;5056920;28;20054;-87
2023/07/01 08:13:26;;;;;;;13.57;7.60;;;;;;;;;;5055718;28;20136;-85
2023/07/01 08:15:52;;;;;;;14.60;8.13;;;;;;;;;;5053665;28;20151;-82
2023/07/01 08:18:18;;;;;;;11.98;7.55;;;;;;;;;;5052729;28;20528;-82
2023/07/01 08:20:44;;;;;;;;;;;;;;;;;;5038916;28;20094;-85
2023/07/01 08:23:10;;;;;;;12.70;7.47;;;;;;;;;;5072945;28;20368;-87
2023/07/01 08:25:39;;;;;;;11.50;6.78;;;;;;;;;;5055790;28;20079;-86
2023/07/01 08:28:05;;;;;;;12.07;7.18;;;;;;;;;;5073873;28;20044;-86
2023/07/01 08:30:31;;;;;;;12.57;7.78;;;;;;;;;;5039048;28;20095;-87
2023/07/01 08:32:57;;;;;;;;;;;;;;;;;;5073270;28;20071;-88
2023/07/01 08:35:23;;;;;;;9.82;6.32;;;;;;;;;;5072336;28;19920;-87
2023/07/01 08:37:49;;;;;;;;;;;;;;;;;;5055827;28;20138;-86
2023/07/01 08:40:15;;;;;;;11.13;6.78;;;;;;;;;;5056846;28;19967;-88
2023/07/01 08:42:43;;;;;;;;;;;;;;;;;;5034464;28;20072;-86
2023/07/01 08:45:09;;;;;;;11.52;7.28;;;;;;;;;;5053245;28;19921;-81
2023/07/01 08:47:36;;;;;;;11.27;7.05;;;;;;;;;;5036077;28;20057;-88
2023/07/01 08:50:06;;;;;;;11.43;7.07;;;;;;;;;;5048131;28;20044;-89
2023/07/01 08:52:42;;;;;;;11.02;6.47;;;;;;;;;;5053787;28;20053;-88
2023/07/01 08:55:10;;;;;;;8.75;6.03;;;;;;;;;;5053798;28;20055;-88
2023/07/01 08:57:38;;;;;;;11.13;6.35;;;;;;;;;;5069657;28;20049;-84
2023/07/01 09:00:04;;;;;;;11.10;6.65;;;;;;;;;;5073328;28;20048;-85
2023/07/01 09:02:31;;;;;;;9.25;6.43;;;;;;;;;;5039463;28;20119;-83
2023/07/01 09:04:58;;;;;;;13.68;6.28;;;;;;;;;;5055313;28;20225;-81
2023/07/01 09:07:24;;;;;;;10.27;6.55;;;;;;;;;;5056002;28;20051;-84
2023/07/01 09:09:50;;;;;;;12.23;6.70;;;;;;;;;;5072112;28;20044;-83
2023/07/01 09:12:15;;;;;;;;;;;;;;;;;;5057554;28;20145;-87
2023/07/01 09:15:00;;;;;;;10.55;7.05;;;;;;;;;;5057842;28;19920;-89
2023/07/01 09:17:27;;;;;;;10.40;6.47;;;;;;;;;;5054926;28;20486;-88
2023/07/01 09:19:53;;;;;;;10.45;6.65;;;;;;;;;;5056239;28;20044;-89
2023/07/01 09:22:19;;;;;;;;;;;;;;;;;;5064196;28;20041;-89
2023/07/01 09:24:45;;;;;;;11.00;6.60;;;;;;;;;;5072309;28;19935;-88
2023/07/01 09:27:11;;;;;;;;;;;;;;;;;;5040395;28;20058;-90
2023/07/01 09:29:40;;;;;;;10.63;6.70;;;;;;;;;;5055839;28;19924;-89
2023/07/01 09:32:06;;;;;;;14.25;7.30;;;;;;;;;;5040491;28;20040;-88
2023/07/01 09:34:58;;;;;;;10.65;6.72;;;;;;;;;;5055290;28;20044;-88
2023/07/01 09:37:28;;;;;;;10.93;6.95;;;;;;;;;;5054740;28;20060;-89
2023/07/01 09:39:56;;;;;;;9.90;6.07;;;;;;;;;;5055715;28;20071;-90
2023/07/01 09:42:22;;;;;;;12.57;7.30;;;;;;;;;;5056256;28;20051;-89
2023/07/01 09:44:48;;;;;;;;;;;;;;;;;;5056761;28;20056;-91
2023/07/01 09:47:25;;;;;;;10.68;5.97;;;;;;;;;;5056786;28;19920;-89
2023/07/01 09:49:53;;;;;;;11.73;7.00;;;;;;;;;;5055580;28;20188;-90
2023/07/01 09:52:30;;;;;;;10.85;6.45;;;;;;;;;;5040219;28;20392;-89
2023/07/01 09:54:56;;;;;;;8.85;5.47;;;;;;;;;;5053639;28;20044;-82
2023/07/01 09:57:23;;;;;;;8.80;5.68;;;;;;;;;;5052921;28;20056;-82
2023/07/01 09:59:49;;;;;;;;;;;;;;;;;;5055556;28;20055;-88
2023/07/01 10:02:15;;;;;;;11.50;6.35;;;;;;;;;;5055375;28;19943;-90
2023/07/01 10:04:41;;;;;;;;;;;;;;;;;;5055090;28;20044;-90
2023/07/01 10:07:07;;;;;;;13.18;7.22;;;;;;;;;;5072839;28;19942;-92
2023/07/01 10:09:33;;;;;;;11.25;6.55;;;;;;;;;;5055529;28;20075;-91
2023/07/01 10:12:02;;;;;;;10.65;6.82;;;;;;;;;;5072847;28;20048;-91
2023/07/01 10:14:28;;;;;;;;;;;;;;;;;;5072106;28;20048;-90
2023/07/01 10:16:54;;;;;;;10.73;6.18;;;;;;;;;;5055722;28;19920;-90
2023/07/01 10:19:20;;;;;;;;;;;;;;;;;;5045202;28;20052;-88
2023/07/01 10:21:46;;;;;;;11.25;5.95;;;;;;;;;;5056513;28;20289;-89
2023/07/01 10:24:12;;;;;;;;;;;;;;;;;;5048749;28;20049;-88
2023/07/01 10:26:47;;;;;;;10.65;5.75;;;;;;;;;;5051503;28;19925;-87
2023/07/01 10:29:28;;;;;;;11.95;6.10;;;;;;;;;;5051570;28;20084;-88
2023/07/01 10:32:10;;;;;;;9.73;6.35;;;;;;;;;;5054066;28;20036;-88
2023/07/01 10:34:55;;;;;;;8.15;5.68;;;;;;;;;;5068315;28;20047;-85
2023/07/01 10:37:28;;;;;;;9.30;5.75;;;;;;;;;;5069883;28;20033;-84
2023/07/01 10:39:54;;;;;;;9.77;5.75;;;;;;;;;;5053631;28;20401;-88
2023/07/01 10:42:34;;;;;;;9.25;5.75;;;;;;;;;;5053892;28;20040;-88
2023/07/01 10:45:12;;;;;;;7.68;5.50;;;;;;;;;;5069788;28;20129;-80
2023/07/01 10:47:45;;;;;;;8.80;4.95;;;;;;;;;;5068786;28;20408;-81
2023/07/01 10:50:15;;;;;;;9.77;4.93;;;;;;;;;;5069495;28;20492;-79
2023/07/01 10:52:59;;;;;;;9.38;6.13;;;;;;;;;;5068705;28;20041;-80
2023/07/01 10:55:34;;;;;;;8.75;5.35;;;;;;;;;;5069551;28;20090;-80
2023/07/01 10:58:21;;;;;;;8.57;4.90;;;;;;;;;;5068795;28;20058;-80
2023/07/01 11:00:48;;;;;;;8.65;5.25;;;;;;;;;;5054996;28;20116;-85
2023/07/01 11:03:36;;;;;;;8.55;4.80;;;;;;;;;;5052287;28;20044;-84
2023/07/01 11:06:10;;;;;;;9.57;4.85;;;;;;;;;;5069703;28;20084;-85
2023/07/01 11:08:46;;;;;;;7.63;5.10;;;;;;;;;;5048496;28;20045;-84
2023/07/01 11:11:17;;;;;;;9.02;4.63;;;;;;;;;;5049641;28;20064;-84
2023/07/01 11:13:54;;;;;;;9.48;5.63;;;;;;;;;;5049612;28;20044;-85
2023/07/01 11:16:21;;;;;;;9.98;5.03;;;;;;;;;;5068224;28;20036;-86
2023/07/01 11:18:48;;;;;;;10.25;4.65;;;;;;;;;;5067701;28;20056;-87
2023/07/01 11:21:18;;;;;;;7.43;4.72;;;;;;;;;;5069524;28;20043;-84
2023/07/01 11:23:51;;;;;;;8.00;5.15;;;;;;;;;;5068081;28;20049;-87
2023/07/01 11:26:25;;;;;;;8.57;4.82;;;;;;;;;;5052442;28;20451;-85
2023/07/01 11:28:52;;;;;;;6.80;4.18;;;;;;;;;;5068796;28;20568;-85
2023/07/01 11:31:24;;;;;;;8.30;4.70;;;;;;;;;;5052908;28;20087;-85
2023/07/01 11:33:54;;;;;;;6.50;4.15;;;;;;;;;;5068535;28;20155;-87
2023/07/01 11:36:21;;;;;;;6.70;4.72;;;;;;;;;;5053087;28;20135;-83
2023/07/01 11:38:48;;;;;;;6.68;4.53;;;;;;;;;;5068811;28;20040;-86
2023/07/01 11:41:14;;;;;;;8.23;4.55;;;;;;;;;;5057630;28;20044;-86
2023/07/01 11:43:40;;;;;;;;;;;;;;;;;;5069590;28;20151;-82
2023/07/01 11:46:06;;;;;;;7.40;4.60;;;;;;;;;;5049061;28;20397;-82
2023/07/01 11:48:33;;;;;;;7.95;4.72;;;;;;;;;;5067950;28;20048;-84
2023/07/01 11:50:59;;;;;;;8.18;5.28;;;;;;;;;;5069013;28;20083;-81
2023/07/01 11:53:29;;;;;;;8.70;4.63;;;;;;;;;;5069000;28;20107;-86
2023/07/01 11:55:56;;;;;;;7.97;4.93;;;;;;;;;;5068778;28;20048;-88
2023/07/01 11:58:25;;;;;;;9.23;5.05;;;;;;;;;;5051071;28;20040;-88
2023/07/01 12:00:51;;;;;;;8.32;4.72;;;;;;;;;;5069967;28;20049;-87
2023/07/01 12:03:17;;;;;;;;;;;;;;;;;;5072047;28;20040;-87
2023/07/01 12:05:46;;;;;;;8.18;5.40;;;;;;;;;;5072222;28;19924;-87
2023/07/01 12:08:12;;;;;;;8.73;5.47;;;;;;;;;;5034738;28;20045;-87
2023/07/01 12:10:38;;;;;;;8.85;5.43;;;;;;;;;;5072662;28;20048;-86
2023/07/01 12:13:05;;;;;;;9.07;5.20;;;;;;;;;;5054131;28;20087;-85
2023/07/01 12:15:33;;;;;;;11.20;5.85;;;;;;;;;;5072017;28;20389;-86
2023/07/01 12:18:17;;;;;;;9.35;5.85;;;;;;;;;;5068614;28;20513;-86
2023/07/01 12:20:44;;;;;;;10.23;6.05;;;;;;;;;;5055082;28;20049;-86
2023/07/01 12:23:09;;;;;;;;;;;;;;;;;;5053856;28;20041;-88
2023/07/01 12:25:36;;;;;;;12.35;6.75;;;;;;;;;;5071711;28;19928;-86
2023/07/01 12:28:04;;;;;;;;;;;;;;;;;;5071762;28;20072;-89
2023/07/01 12:30:30;;;;;;;11.60;6.50;;;;;;;;;;5055060;28;19928;-87
2023/07/01 12:32:56;;;;;;;;;;;;;;;;;;5054080;28;20050;-87
2023/07/01 12:35:22;;;;;;;10.70;6.10;;;;;;;;;;5072501;28;19982;-88
2023/07/01 12:37:49;;;;;;;10.32;6.13;;;;;;;;;;5072713;28;20041;-88
2023/07/01 12:40:15;;;;;;;10.40;5.70;;;;;;;;;;5055672;28;20048;-88
2023/07/01 12:42:41;;;;;;;;;;;;;;;;;;5056395;28;20079;-88
2023/07/01 12:45:08;;;;;;;9.98;5.53;;;;;;;;;;5054335;28;19959;-84
2023/07/01 12:47:34;;;;;;;9.50;4.75;;;;;;;;;;5072213;28;20048;-85
2023/07/01 12:50:00;;;;;;;;;;;;;;;;;;5056163;28;20400;-84
2023/07/01 12:52:26;;;;;;;35.67;6.13;;;;;;;;;;5052904;28;19921;-86
2023/07/01 12:54:52;;;;;;;;;;;;;;;;;;5053195;28;20044;-86
2023/07/01 12:57:20;;;;;;;11.17;3.13;;;;;;;;;;5053731;28;19925;-85
2023/07/01 12:59:54;;;;;;;6.45;2.85;;;;;;;;;;5037156;28;20052;-85
2023/07/01 13:02:20;;;;;;;5.78;2.90;;;;;;;;;;5036702;28;20067;-85
2023/07/01 13:04:46;;;;;;;;;;;;;;;;;;5053617;28;20045;-84
2023/07/01 13:07:18;;;;;;;7.32;3.58;;;;;;;;;;5052652;28;20372;-84
2023/07/01 13:09:50;;;;;;;11.82;4.55;;;;;;;;;;5052660;28;20052;-84
2023/07/01 13:12:19;;;;;;;10.70;4.97;;;;;;;;;;5053196;28;20106;-83
2023/07/01 13:14:45;;;;;;;10.35;4.72;;;;;;;;;;5059018;28;20048;-83
2023/07/01 13:17:11;;;;;;;;;;;;;;;;;;5052246;28;20045;-83
2023/07/01 13:19:37;;;;;;;10.23;4.95;;;;;;;;;;5053983;28;19926;-83
2023/07/01 13:22:03;;;;;;;;;;;;;;;;;;5062723;28;20041;-84
2023/07/01 13:24:30;;;;;;;12.55;6.38;;;;;;;;;;5051349;28;19927;-84
2023/07/01 13:26:58;;;;;;;13.13;6.30;;;;;;;;;;5035665;28;20490;-85
2023/07/01 13:29:25;;;;;;;11.68;6.50;;;;;;;;;;5055123;28;20052;-85
2023/07/01 13:31:51;;;;;;;11.77;6.97;;;;;;;;;;5055476;28;20106;-85
2023/07/01 13:34:18;;;;;;;12.77;6.95;;;;;;;;;;5054230;28;20697;-84
2023/07/01 13:36:50;;;;;;;11.73;6.50;;;;;;;;;;5068243;28;20048;-84
2023/07/01 13:39:17;;;;;;;12.95;6.88;;;;;;;;;;5069695;28;20059;-84
2023/07/01 13:41:43;;;;;;;12.15;6.60;;;;;;;;;;5066000;28;20047;-84
2023/07/01 13:44:09;;;;;;;;;;;;;;;;;;5051427;28;20048;-84
2023/07/01 13:46:37;;;;;;;12.03;6.77;;;;;;;;;;5051713;28;19920;-84
2023/07/01 13:49:03;;;;;;;12.32;6.53;;;;;;;;;;5033829;28;20041;-84
2023/07/01 13:51:29;;;;;;;;;;;;;;;;;;5051918;28;20493;-84
2023/07/01 13:53:55;;;;;;;10.00;5.80;;;;;;;;;;5050881;28;19968;-84
2023/07/01 13:56:21;;;;;;;;;;;;;;;;;;5034934;28;20394;-84
2023/07/01 13:58:47;;;;;;;12.90;6.78;;;;;;;;;;5050343;28;19951;-85
2023/07/01 14:01:14;;;;;;;;;;;;;;;;;;5034779;28;20048;-84
2023/07/01 14:03:53;;;;;;;11.60;7.50;;;;;;;;;;5050014;28;19921;-85
2023/07/01 14:06:20;;;;;;;13.93;6.90;;;;;;;;;;5033158;28;20048;-80
2023/07/01 14:08:46;;;;;;;11.32;7.13;;;;;;;;;;5049508;28;20057;-81
2023/07/01 14:11:17;;;;;;;10.75;6.22;;;;;;;;;;5052097;28;20061;-83
2023/07/01 14:13:43;;;;;;;11.32;6.25;;;;;;;;;;5068649;28;20473;-84
2023/07/01 14:16:10;;;;;;;9.25;5.82;;;;;;;;;;5070468;28;20394;-83
2023/07/01 14:18:39;;;;;;;8.60;5.75;;;;;;;;;;5067573;28;20067;-84
2023/07/01 14:21:05;;;;;;;11.38;7.07;;;;;;;;;;5051767;28;20048;-81
2023/07/01 14:23:35;;;;;;;10.65;6.35;;;;;;;;;;5068201;28;20044;-81
2023/07/01 14:26:02;;;;;;;9.70;5.75;;;;;;;;;;5069242;28;20048;-83
2023/07/01 14:28:29;;;;;;;11.55;5.88;;;;;;;;;;5068988;28;20048;-79
2023/07/01 14:31:07;;;;;;;9.48;6.13;;;;;;;;;;5069901;28;20052;-79
2023/07/01 14:33:48;;;;;;;10.80;6.55;;;;;;;;;;5067236;28;20629;-80
2023/07/01 14:36:19;;;;;;;10.85;6.22;;;;;;;;;;5068449;28;20048;-81
2023/07/01 14:38:46;;;;;;;9.80;5.78;;;;;;;;;;5065249;28;20041;-80
2023/07/01 14:41:17;;;;;;;9.65;5.85;;;;;;;;;;5069643;28;20043;-81
2023/07/01 14:43:44;;;;;;;11.20;6.60;;;;;;;;;;5068250;28;20040;-81
2023/07/01 14:46:10;;;;;;;;;;;;;;;;;;5068865;28;20043;-80
2023/07/01 14:48:36;;;;;;;12.52;6.57;;;;;;;;;;5068129;28;19928;-80
2023/07/01 14:51:02;;;;;;;;;;;;;;;;;;5070225;28;20095;-81
2023/07/01 14:53:28;;;;;;;7.75;5.20;;;;;;;;;;5067380;28;20291;-81
2023/07/01 14:55:54;;;;;;;9.90;5.43;;;;;;;;;;5068742;28;20104;-81
2023/07/01 14:58:20;;;;;;;10.15;5.85;;;;;;;;;;5051222;28;20076;-82
2023/07/01 15:00:46;;;;;;;;;;;;;;;;;;5052719;28;20055;-82
2023/07/01 15:03:12;;;;;;;8.90;5.85;;;;;;;;;;5066093;28;19924;-81
2023/07/01 15:05:38;;;;;;;;;;;;;;;;;;5032911;28;20084;-81